Aeroporto :
LOGIN :

Iscrizione | Disclaimer

   EN    FR    IT 

 










Sommario :    VFR   VFR Marginale   IFR   IFR Intensivo   IFR Molto Intensivo
Visibilità : 
Base nubi : 
>= 8 km
>= 3000ft
5 / 8 km
1000 / 3000 ft
1500m / 5 km
500 / 1000 ft
800 / 1500m
200 / 500 ft
< 800m
< 200 ft
Simboli :   Temporali  Nebbia  Neve Forte  Precipitazioni Forti  Vento > 20 kt
SIGMETs :   Varie  Temporali  Ghiacco  Turbolenza  Onda orograficha  Ceneri Vulcaniche






- Altitudine del aeroporto : 143 ft


LGEL - Elefsis

ULTIMO METAR :
  • 061820Z /////KT 9999 FEW020 SCT030 22/17 Q1006

METARs OBSOLETI :
  • 061750Z /////KT 9999 FEW020 SCT030 23/17 Q1006
  • 061720Z /////KT 9999 SCT025 23/17 Q1005
  • 061650Z /////KT 9999 SCT025 23/18 Q1005
  • 061620Z /////KT 9999 SCT025 24/18 Q1005
  • 061550Z /////KT 9999 SCT025 24/18 Q1005

TAF TAF LGEL
Valido dal 06 a 18 ore il 07 a 18 ore UTC


061700Z 0618/0718 19010KT 9999 FEW025
BECMG 0618/0620 VRB03KT
PROB30
TEMPO 0709/0712 5000 RA FEW018TCU BKN020



MetMap, La meteo Aeronautica in un colpo d'occhio ! - Copyright ORBIFLY Dicembre 2007 - Disclaimer

ORBIFLY MET'MAP TEAM :

Programmazione e sviluppo : Alexandra Zaïnal
Concezione : Baudouin d'Aumeries
Aiuto per la programmazione : Marc-Olivier Méhu
Supporto tecnico e logistico : Manuel Goepfert
Aiuto per la traduzione : Arnaldo La Scala

Contatto : metmap@orbifly.com




FONTI E CREDITI :

   NOAA